Austin, TX (78741)

3:52 AM CDT on August 26, 2016 (GMT -0500)
Hillside Villas | | Change Station

Elev 535 ft 30.23 °N, 97.72 °W | Updated 16 seconds ago

Mostly Cloudy
Mostly Cloudy
79.0 °F
Feels Like 83 °F
N
0.0
Wind Variable Wind from NE

Today
High -- | Low -- °F
--% Chance of Precip.
Yesterday
High -- | Low -- °F
Precip. -- in
Pressure 30.00 in
Visibility 10.0 miles
Clouds Mostly Cloudy 11000 ft
Heat Index 83 °F
Dew Point 74 °F
Humidity 85%
Rainfall 0.00 in
Snow Depth Not available.
7:04 AM 7:59 PM
Last Quarter, 36% visible
METAR KAUS 260753Z 34003KT 10SM BKN110 24/23 A3004 RMK AO2 SLP159 T02440233
Pressure 30.00 in
Visibility 10.0 miles
Clouds Mostly Cloudy 11000 ft
Heat Index 83 °F
Dew Point 74 °F
Humidity 85%
Rainfall 0.00 in
Snow Depth Not available.
7:04 AM 7:59 PM
Last Quarter, 36% visible
METAR KAUS 260753Z 34003KT 10SM BKN110 24/23 A3004 RMK AO2 SLP159 T02440233

10-Day Weather Forecast

Almanac

Astronomy

Aug. 26, 2016 Rise Set
Actual Time
Civil Twilight
Nautical Twilight
Astronomical Twilight
Moon
Length of Visible Light
Length of Day
Tomorrow will be .
, % of the Moon is Illuminated

Today's Extremes

State Highs State Lows

Community

WunderPhotos

Upload Photos

1,935,062 photos uploaded!

WunderBlog® & News

Nearby

Air Quality

  Air Quality AQ Index Pollutant
Not available.

Snow Depth

Station Depth Elevation

Earthquake Activity

City Distance Mag. Time & Date
Minimum magnitude displayed is 2.5.

Coastal Water Temperatures

Place Temperature

Stations

Nearby Weather Stations

Station Location Temp. Windchill Dew Point Humidity Wind Precip. Elev Updated Type
                   

Watches & Warnings

There are currently no watches in effect.